Astoria Regional Airport
KAST : now visible

Airfield :











YOU CAN JOIN US ON...

 
LOGIN :

Register | Disclaimer

   EN    FR    IT 

 









Legend :    VFR   Marginal VFR   IFR   Intensive IFR   Very Intensive IFR
Visi :
Ceiling :
>= 8 km
>= 3000ft
5 to 8 km
1000 to 3000 ft
1500m to 5 km
500 to 1000 ft
800 to 1500m
200 to 500 ft
< 800m
< 200 ft
Symbols :   Thunderstorms  Fog  Heavy snow  Heavy precipitations  Wind > 20 kt






- Airport Elevation : 15 ft


KAST - Astoria Regional

CURRENT METAR :
  • 162055Z AUTO 34010KT 10SM FEW030 SCT036 BKN047 16/07 A3005 RMK AO2 SLP175 T01610067 58008 $

EXPIRED METARs :
  • 162026Z AUTO 34011KT 10SM SCT029 BKN035 16/08 A3005 RMK AO2 CIG 029 RWY 08 T01610083 $
  • 161755Z AUTO 36006KT 10SM FEW060 SCT110 16/08 A3007 RMK AO2 SLP183 T01560083 10161 20094 56007 $
  • 161655Z AUTO 06003KT 10SM BKN055 14/09 A3008 RMK AO2 SLP185 T01440089 $

TAF KAST
Valid from the 16 at 18:00 until the 17 at 18:00 UTC


161723Z 1618/1718 VRB04KT P6SM -SHRA BKN060
FM162100 31011KT P6SM -SHRA FEW030 OVC050
FM170000 32013G21KT P6SM OVC040
FM170600 30007KT P6SM BKN025
KZSE FIR / North America



MET'MAP, your aeronautical weather chart ! - Copyright ORBIFLY December 2007 - Disclaimer

ORBIFLY MET'MAP TEAM :

Programming & Development : Alexandra Zaïnal
Original concept : Baudouin d'Aumeries
Technical & hardware support : Manuel Goepfert
Assistance : Marc-Olivier Méhu




SOURCES & CREDITS :

   NOAA       Earth
Advisory